Hillview, Illinois
Current Conditions -  °F | °C
As of 7:15 PM on Sunday 23 Nov 2014 (Local Time) from KPPQ Reporting Station
Overcast Overcast  
Wind Chill: 53°   Ceiling: 1200
Heat Index: 53°   Visibility: 1.5mi
Dew Point: 51°   Wind: 0mph
Humidity: 94%   Direction: NA
Pressure: 29.27"   Gusts: NA
Location:  39.45°N, 90.54°W
Report Text: KPPQ 240115Z AUTO 00000KT 1 1/2SM SCT002 SCT007 OVC012 11/11 A2927 RMK AO2 T01140105 PWINO
Loading
Personal Weather Stations






























Interactive Weather Map New forecast layout! Learn more

10-Day Weather Forecast

Advertisements
Track Severe Weather on mobile